createdAt,value
2022-11-07T00:00:21.137Z,988.89
2022-11-07T00:01:21.252Z,988.90
2022-11-07T00:02:21.186Z,988.83
2022-11-07T00:03:21.141Z,988.86
2022-11-07T00:04:21.095Z,988.82
2022-11-07T00:05:21.084Z,988.88
2022-11-07T00:06:21.070Z,988.80
2022-11-07T00:07:21.068Z,988.76
2022-11-07T00:08:21.055Z,988.80
2022-11-07T00:09:21.047Z,988.78
2022-11-07T00:10:21.040Z,988.82
2022-11-07T00:11:21.036Z,988.86
2022-11-07T00:12:21.019Z,988.82
2022-11-07T00:13:21.654Z,988.87
2022-11-07T00:14:21.008Z,988.84
2022-11-07T00:15:21.007Z,988.83
2022-11-07T00:16:21.002Z,988.87
2022-11-07T00:17:21.016Z,988.90
2022-11-07T00:18:20.977Z,988.90
2022-11-07T00:19:20.968Z,988.85
2022-11-07T00:20:20.959Z,988.84
2022-11-07T00:21:20.956Z,988.89
2022-11-07T00:22:20.947Z,988.86
2022-11-07T00:23:20.928Z,988.95
2022-11-07T00:24:20.923Z,988.96
2022-11-07T00:25:20.918Z,988.94
2022-11-07T00:26:20.907Z,988.91
2022-11-07T00:27:20.958Z,988.98
2022-11-07T00:29:21.052Z,988.94
2022-11-07T00:30:21.057Z,988.95
2022-11-07T00:31:21.048Z,988.94
2022-11-07T00:32:21.047Z,988.86
2022-11-07T00:33:21.022Z,988.94
2022-11-07T00:34:22.117Z,988.96
2022-11-07T00:35:22.100Z,988.95
2022-11-07T00:36:22.091Z,988.89
2022-11-07T00:37:22.105Z,988.97
2022-11-07T00:38:22.078Z,988.90
2022-11-07T00:39:22.986Z,989.00
2022-11-07T00:40:22.058Z,988.98
2022-11-07T00:41:22.058Z,989.02
2022-11-07T00:42:22.046Z,989.04
2022-11-07T00:43:22.044Z,989.04
2022-11-07T00:44:22.033Z,989.07
2022-11-07T00:45:22.027Z,989.06
2022-11-07T00:46:22.030Z,989.09
2022-11-07T00:47:22.028Z,989.14
2022-11-07T00:48:22.016Z,989.12
2022-11-07T00:49:21.987Z,989.13
2022-11-07T00:50:22.989Z,989.08
2022-11-07T00:51:21.980Z,989.16
2022-11-07T00:52:21.971Z,989.21
2022-11-07T00:53:21.980Z,989.14
2022-11-07T00:54:21.958Z,989.18
2022-11-07T00:55:21.967Z,989.12
2022-11-07T00:56:21.944Z,989.24
2022-11-07T00:57:21.928Z,989.23
2022-11-07T00:58:21.921Z,989.21
2022-11-07T00:59:21.913Z,989.22
2022-11-07T01:00:21.899Z,989.25
2022-11-07T01:01:21.987Z,989.27
2022-11-07T01:02:21.985Z,989.23
2022-11-07T01:03:21.880Z,989.26
2022-11-07T01:04:21.870Z,989.26
2022-11-07T01:05:21.861Z,989.26
2022-11-07T01:06:21.858Z,989.26
2022-11-07T01:07:21.852Z,989.40
2022-11-07T01:08:21.833Z,989.38
2022-11-07T01:09:21.829Z,989.39
2022-11-07T01:10:21.828Z,989.39
2022-11-07T01:11:21.828Z,989.36
2022-11-07T01:12:21.814Z,989.32
2022-11-07T01:13:21.802Z,989.34
2022-11-07T01:14:21.804Z,989.34
2022-11-07T01:15:21.790Z,989.33
2022-11-07T01:16:21.781Z,989.37
2022-11-07T01:17:21.777Z,989.34
2022-11-07T01:18:21.751Z,989.40
2022-11-07T01:19:22.754Z,989.38
2022-11-07T01:20:21.739Z,989.36
2022-11-07T01:21:21.731Z,989.41
2022-11-07T01:22:22.503Z,989.34
2022-11-07T01:23:21.712Z,989.31
2022-11-07T01:24:21.715Z,989.33
2022-11-07T01:25:21.706Z,989.36
2022-11-07T01:26:21.831Z,989.34
2022-11-07T01:27:21.687Z,989.36
2022-11-07T01:28:21.674Z,989.34
2022-11-07T01:29:21.668Z,989.38
2022-11-07T01:30:21.672Z,989.37
2022-11-07T01:31:21.656Z,989.40
2022-11-07T01:32:21.660Z,989.37
2022-11-07T01:33:21.637Z,989.36
2022-11-07T01:34:21.635Z,989.34
2022-11-07T01:35:21.625Z,989.37
2022-11-07T01:36:21.643Z,989.35
2022-11-07T01:37:21.607Z,989.39
2022-11-07T01:38:21.606Z,989.32
2022-11-07T01:39:21.601Z,989.31
2022-11-07T01:40:21.585Z,989.30
2022-11-07T01:41:22.529Z,989.32
2022-11-07T01:42:21.571Z,989.32
2022-11-07T01:43:21.561Z,989.32
2022-11-07T01:44:21.555Z,989.32
2022-11-07T01:45:21.541Z,989.35
2022-11-07T01:46:21.541Z,989.33
2022-11-07T01:47:21.534Z,989.31
2022-11-07T01:48:21.517Z,989.33
2022-11-07T01:49:21.518Z,989.35
2022-11-07T01:50:24.676Z,989.39
2022-11-07T01:51:22.505Z,989.40
2022-11-07T01:52:21.494Z,989.39
2022-11-07T01:53:21.481Z,989.37
2022-11-07T01:54:21.473Z,989.33
2022-11-07T01:55:21.470Z,989.33
2022-11-07T01:56:21.464Z,989.35
2022-11-07T01:57:21.448Z,989.43
2022-11-07T01:58:21.462Z,989.41
2022-11-07T01:59:21.441Z,989.39
2022-11-07T02:00:21.422Z,989.41
2022-11-07T02:01:21.498Z,989.47
2022-11-07T02:02:21.512Z,989.42
2022-11-07T02:03:21.435Z,989.40
2022-11-07T02:04:21.388Z,989.44
2022-11-07T02:05:21.392Z,989.40
2022-11-07T02:06:21.375Z,989.37
2022-11-07T02:07:21.930Z,989.28
2022-11-07T02:08:21.372Z,989.28
2022-11-07T02:09:21.351Z,989.25
2022-11-07T02:10:21.343Z,989.32
2022-11-07T02:11:21.336Z,989.36
2022-11-07T02:12:21.333Z,989.44
2022-11-07T02:13:21.326Z,989.44
2022-11-07T02:14:21.399Z,989.46
2022-11-07T02:15:21.303Z,989.42
2022-11-07T02:16:21.307Z,989.34
2022-11-07T02:17:21.291Z,989.36
2022-11-07T02:18:21.314Z,989.41
2022-11-07T02:19:21.272Z,989.50
2022-11-07T02:20:21.271Z,989.47
2022-11-07T02:21:21.255Z,989.49
2022-11-07T02:22:21.251Z,989.52
2022-11-07T02:23:21.243Z,989.55
2022-11-07T02:24:21.231Z,989.50
2022-11-07T02:25:21.224Z,989.47
2022-11-07T02:26:21.218Z,989.51
2022-11-07T02:27:21.206Z,989.52
2022-11-07T02:28:21.207Z,989.53
2022-11-07T02:29:21.188Z,989.49
2022-11-07T02:30:21.183Z,989.51
2022-11-07T02:31:21.174Z,989.53
2022-11-07T02:32:21.184Z,989.42
2022-11-07T02:33:21.157Z,989.55
2022-11-07T02:34:21.156Z,989.50
2022-11-07T02:35:21.143Z,989.55
2022-11-07T02:36:21.146Z,989.49
2022-11-07T02:37:21.147Z,989.54
2022-11-07T02:38:21.123Z,989.54
2022-11-07T02:39:21.113Z,989.48
2022-11-07T02:40:21.128Z,989.50
2022-11-07T02:41:21.104Z,989.50
2022-11-07T02:42:21.091Z,989.51
2022-11-07T02:43:21.100Z,989.53
2022-11-07T02:44:21.078Z,989.55
2022-11-07T02:45:21.076Z,989.55
2022-11-07T02:46:21.944Z,989.53
2022-11-07T02:47:21.046Z,989.48
2022-11-07T02:48:21.056Z,989.41
2022-11-07T02:49:21.033Z,989.46
2022-11-07T02:50:21.017Z,989.43
2022-11-07T02:51:22.033Z,989.39
2022-11-07T02:52:21.025Z,989.36
2022-11-07T02:53:21.008Z,989.38
2022-11-07T02:54:21.010Z,989.41
2022-11-07T02:55:20.987Z,989.44
2022-11-07T02:56:20.997Z,989.43
2022-11-07T02:57:20.980Z,989.42
2022-11-07T02:58:20.973Z,989.34
2022-11-07T02:59:25.846Z,989.35
2022-11-07T03:00:22.971Z,989.35
2022-11-07T03:01:21.281Z,989.34
2022-11-07T03:02:21.229Z,989.32
2022-11-07T03:03:20.930Z,989.26
2022-11-07T03:04:20.914Z,989.24
2022-11-07T03:05:20.924Z,989.24
2022-11-07T03:06:20.901Z,989.23
2022-11-07T03:07:20.894Z,989.15
2022-11-07T03:08:20.898Z,989.14
2022-11-07T03:09:20.924Z,989.23
2022-11-07T03:10:20.865Z,989.23
2022-11-07T03:11:21.530Z,989.22
2022-11-07T03:12:20.850Z,989.22
2022-11-07T03:13:20.848Z,989.22
2022-11-07T03:14:20.878Z,989.12
2022-11-07T03:15:20.831Z,989.15
2022-11-07T03:16:20.825Z,989.14
2022-11-07T03:17:20.821Z,989.14
2022-11-07T03:18:21.819Z,989.18
2022-11-07T03:19:20.800Z,989.15
2022-11-07T03:20:20.811Z,989.14
2022-11-07T03:21:20.781Z,989.19
2022-11-07T03:22:20.768Z,989.17
2022-11-07T03:23:20.765Z,989.24
2022-11-07T03:24:20.762Z,989.26
2022-11-07T03:25:20.747Z,989.28
2022-11-07T03:26:20.734Z,989.29
2022-11-07T03:27:20.737Z,989.32
2022-11-07T03:28:20.721Z,989.34
2022-11-07T03:29:20.703Z,989.26
2022-11-07T03:30:22.451Z,989.32
2022-11-07T03:31:20.712Z,989.38
2022-11-07T03:32:20.697Z,989.38
2022-11-07T03:33:20.683Z,989.37
2022-11-07T03:34:20.671Z,989.40
2022-11-07T03:35:20.664Z,989.43
2022-11-07T03:36:20.658Z,989.46
2022-11-07T03:37:20.647Z,989.44
2022-11-07T03:38:20.640Z,989.45
2022-11-07T03:39:25.493Z,989.43
2022-11-07T03:40:22.620Z,989.48
2022-11-07T03:41:20.627Z,989.48
2022-11-07T03:42:20.611Z,989.50
2022-11-07T03:43:20.606Z,989.46
2022-11-07T03:44:20.595Z,989.55
2022-11-07T03:45:20.591Z,989.49
2022-11-07T03:46:20.589Z,989.54
2022-11-07T03:47:20.575Z,989.53
2022-11-07T03:48:20.558Z,989.58
2022-11-07T03:49:20.559Z,989.50
2022-11-07T03:50:20.551Z,989.52
2022-11-07T03:51:20.540Z,989.50
2022-11-07T03:52:20.530Z,989.53
2022-11-07T03:53:25.118Z,989.59
2022-11-07T03:54:22.515Z,989.62
2022-11-07T03:55:20.522Z,989.65
2022-11-07T03:56:20.498Z,989.61
2022-11-07T03:57:20.494Z,989.61
2022-11-07T03:58:20.520Z,989.60
2022-11-07T03:59:20.486Z,989.64
2022-11-07T04:00:21.035Z,989.69
2022-11-07T04:01:20.516Z,989.66
2022-11-07T04:02:20.613Z,989.67
2022-11-07T04:03:21.033Z,989.70
2022-11-07T04:04:20.480Z,989.76
2022-11-07T04:05:20.433Z,989.74
2022-11-07T04:06:20.430Z,989.78
2022-11-07T04:07:20.432Z,989.78
2022-11-07T04:08:20.402Z,989.74
2022-11-07T04:09:20.396Z,989.74
2022-11-07T04:10:20.396Z,989.71
2022-11-07T04:11:20.386Z,989.76
2022-11-07T04:12:20.372Z,989.78
2022-11-07T04:13:20.364Z,989.79
2022-11-07T04:14:20.369Z,989.68
2022-11-07T04:15:20.356Z,989.74
2022-11-07T04:16:20.346Z,989.73
2022-11-07T04:17:20.347Z,989.80
2022-11-07T04:18:20.348Z,989.75
2022-11-07T04:19:20.324Z,989.81
2022-11-07T04:20:20.322Z,989.78
2022-11-07T04:21:20.368Z,989.80
2022-11-07T04:22:20.302Z,989.83
2022-11-07T04:23:20.288Z,989.82
2022-11-07T04:24:20.286Z,989.82
2022-11-07T04:25:20.267Z,989.84
2022-11-07T04:26:20.266Z,989.86
2022-11-07T04:27:20.266Z,989.86
2022-11-07T04:28:20.296Z,989.86
2022-11-07T04:29:52.995Z,989.82
2022-11-07T04:30:20.329Z,989.83
2022-11-07T04:31:20.227Z,989.78
2022-11-07T04:32:20.214Z,989.82
2022-11-07T04:33:54.140Z,989.81
2022-11-07T04:34:20.196Z,989.86
2022-11-07T04:35:20.223Z,989.86
2022-11-07T04:36:20.203Z,989.82
2022-11-07T04:37:20.183Z,989.80
2022-11-07T04:38:20.260Z,989.80
2022-11-07T04:39:20.166Z,989.84
2022-11-07T04:40:20.345Z,989.86
2022-11-07T04:41:20.182Z,989.85
2022-11-07T04:42:20.134Z,989.85
2022-11-07T04:43:20.132Z,989.81
2022-11-07T04:44:20.144Z,989.83
2022-11-07T04:45:20.115Z,989.83
2022-11-07T04:46:20.116Z,989.81
2022-11-07T04:47:20.102Z,989.82
2022-11-07T04:48:20.095Z,989.74
2022-11-07T04:49:20.096Z,989.72
2022-11-07T04:50:20.083Z,989.75
2022-11-07T04:51:20.065Z,989.74
2022-11-07T04:52:20.056Z,989.68
2022-11-07T04:53:20.041Z,989.63
2022-11-07T04:54:20.036Z,989.67
2022-11-07T04:55:20.030Z,989.64
2022-11-07T04:56:20.028Z,989.69
2022-11-07T04:57:20.013Z,989.74
2022-11-07T04:58:20.003Z,989.67
2022-11-07T04:59:20.010Z,989.67
2022-11-07T05:00:20.027Z,989.66
2022-11-07T05:01:20.003Z,989.62
2022-11-07T05:02:20.024Z,989.66
2022-11-07T05:03:20.250Z,989.65
2022-11-07T05:04:19.954Z,989.71
2022-11-07T05:05:19.950Z,989.78
2022-11-07T05:06:19.926Z,989.61
2022-11-07T05:07:20.938Z,989.65
2022-11-07T05:08:19.939Z,989.68
2022-11-07T05:09:19.921Z,989.71
2022-11-07T05:10:19.913Z,989.60
2022-11-07T05:11:19.911Z,989.60
2022-11-07T05:12:19.896Z,989.75
2022-11-07T05:13:19.895Z,989.68
2022-11-07T05:14:19.880Z,989.77
2022-11-07T05:15:20.521Z,989.72
2022-11-07T05:16:20.529Z,989.77
2022-11-07T05:17:24.327Z,989.78
2022-11-07T05:18:20.856Z,989.76
2022-11-07T05:19:19.839Z,989.59
2022-11-07T05:20:21.604Z,989.58
2022-11-07T05:21:19.821Z,989.57
2022-11-07T05:22:19.828Z,989.54
2022-11-07T05:23:20.412Z,989.59
2022-11-07T05:24:19.811Z,989.62
2022-11-07T05:25:19.784Z,989.60
2022-11-07T05:26:19.779Z,989.62
2022-11-07T05:27:19.775Z,989.60
2022-11-07T05:28:25.739Z,989.57
2022-11-07T05:29:21.775Z,989.57
2022-11-07T05:30:19.798Z,989.54
2022-11-07T05:31:19.731Z,989.55
2022-11-07T05:32:19.765Z,989.52
2022-11-07T05:33:19.718Z,989.57
2022-11-07T05:34:20.119Z,989.57
2022-11-07T05:35:19.701Z,989.54
2022-11-07T05:36:19.705Z,989.57
2022-11-07T05:37:19.709Z,989.55
2022-11-07T05:38:19.692Z,989.52
2022-11-07T05:39:19.671Z,989.53
2022-11-07T05:40:19.660Z,989.52
2022-11-07T05:41:19.664Z,989.52
2022-11-07T05:42:19.663Z,989.54
2022-11-07T05:43:20.117Z,989.57
2022-11-07T05:44:19.634Z,989.52
2022-11-07T05:45:19.640Z,989.51
2022-11-07T05:46:20.616Z,989.58
2022-11-07T05:47:19.623Z,989.59
2022-11-07T05:48:19.620Z,989.54
2022-11-07T05:49:19.603Z,989.62
2022-11-07T05:50:19.592Z,989.64
2022-11-07T05:51:19.860Z,989.60
2022-11-07T05:52:21.638Z,989.62
2022-11-07T05:53:21.148Z,989.69
2022-11-07T05:54:19.553Z,989.66
2022-11-07T05:55:19.585Z,989.72
2022-11-07T05:56:19.542Z,989.71
2022-11-07T05:57:19.541Z,989.66
2022-11-07T05:58:19.533Z,989.66
2022-11-07T05:59:20.056Z,989.63
2022-11-07T06:00:19.647Z,989.64
2022-11-07T06:01:19.509Z,989.63
2022-11-07T06:02:19.712Z,989.65
2022-11-07T06:03:19.990Z,989.61
2022-11-07T06:04:19.483Z,989.65
2022-11-07T06:05:24.015Z,989.63
2022-11-07T06:06:20.461Z,989.57
2022-11-07T06:07:19.459Z,989.56
2022-11-07T06:08:19.439Z,989.51
2022-11-07T06:09:19.450Z,989.51
2022-11-07T06:10:19.439Z,989.51
2022-11-07T06:11:19.426Z,989.56
2022-11-07T06:12:19.442Z,989.52
2022-11-07T06:13:19.625Z,989.55
2022-11-07T06:14:19.408Z,989.61
2022-11-07T06:15:19.395Z,989.61
2022-11-07T06:16:20.112Z,989.59
2022-11-07T06:17:21.107Z,989.70
2022-11-07T06:18:19.355Z,989.70
2022-11-07T06:19:20.109Z,989.70
2022-11-07T06:20:19.343Z,989.76
2022-11-07T06:21:22.062Z,989.83
2022-11-07T06:22:22.110Z,989.78
2022-11-07T06:23:20.434Z,989.81
2022-11-07T06:24:19.317Z,989.76
2022-11-07T06:25:19.327Z,989.74
2022-11-07T06:26:19.313Z,989.80
2022-11-07T06:27:20.048Z,989.84
2022-11-07T06:28:19.304Z,989.82
2022-11-07T06:29:20.119Z,989.81
2022-11-07T06:30:19.330Z,989.84
2022-11-07T06:31:19.267Z,989.92
2022-11-07T06:33:26.464Z,989.89
2022-11-07T06:34:26.100Z,989.89
2022-11-07T06:35:27.188Z,989.93
2022-11-07T06:36:27.193Z,989.90
2022-11-07T06:37:27.168Z,989.91
2022-11-07T06:38:27.168Z,989.90
2022-11-07T06:39:27.148Z,989.92
2022-11-07T06:40:27.158Z,989.93
2022-11-07T06:41:27.145Z,989.92
2022-11-07T06:42:27.959Z,989.92
2022-11-07T06:43:27.124Z,989.91
2022-11-07T06:45:35.421Z,989.95
2022-11-07T06:46:35.408Z,989.93
2022-11-07T06:47:35.388Z,990.00
2022-11-07T06:48:36.262Z,990.03
2022-11-07T06:49:35.371Z,990.08
2022-11-07T06:50:35.391Z,990.08
2022-11-07T06:51:36.460Z,990.06
2022-11-07T06:52:36.441Z,990.02
2022-11-07T06:53:36.445Z,990.10
2022-11-07T06:54:36.420Z,990.01
2022-11-07T06:55:36.441Z,990.08
2022-11-07T06:56:36.408Z,990.11
2022-11-07T06:57:37.313Z,990.17
2022-11-07T06:58:36.422Z,990.22
2022-11-07T06:59:37.265Z,990.18
2022-11-07T07:00:36.585Z,990.19
2022-11-07T07:01:36.531Z,990.23
2022-11-07T07:02:57.549Z,990.25
2022-11-07T07:03:38.482Z,990.28
2022-11-07T07:04:37.357Z,990.26
2022-11-07T07:05:39.789Z,990.19
2022-11-07T07:06:36.322Z,990.22
2022-11-07T07:07:36.337Z,990.17
2022-11-07T07:08:36.311Z,990.11
2022-11-07T07:09:36.316Z,990.17
2022-11-07T07:10:36.295Z,990.22
2022-11-07T07:11:40.261Z,990.18
2022-11-07T07:12:36.267Z,990.26
2022-11-07T07:13:36.261Z,990.34
2022-11-07T07:14:36.254Z,990.34
2022-11-07T07:15:49.814Z,990.40
2022-11-07T07:16:38.228Z,990.40
2022-11-07T07:17:36.339Z,990.43
2022-11-07T07:18:36.229Z,990.34
2022-11-07T07:19:36.209Z,990.39
2022-11-07T07:20:36.237Z,990.43
2022-11-07T07:21:36.865Z,990.45
2022-11-07T07:22:36.199Z,990.46
2022-11-07T07:23:36.185Z,990.47
2022-11-07T07:24:36.198Z,990.46
2022-11-07T07:25:36.173Z,990.48
2022-11-07T07:26:36.158Z,990.48
2022-11-07T07:27:36.153Z,990.51
2022-11-07T07:28:36.148Z,990.53
2022-11-07T07:29:36.136Z,990.59
2022-11-07T07:30:36.125Z,990.55
2022-11-07T07:31:36.115Z,990.55
2022-11-07T07:32:36.106Z,990.54
2022-11-07T07:33:36.199Z,990.50
2022-11-07T07:34:36.086Z,990.50
2022-11-07T07:35:36.099Z,990.48
2022-11-07T07:36:36.087Z,990.54
2022-11-07T07:37:36.070Z,990.48
2022-11-07T07:38:36.079Z,990.49
2022-11-07T07:39:36.056Z,990.43
2022-11-07T07:40:36.052Z,990.47
2022-11-07T07:41:40.065Z,990.40
2022-11-07T07:42:37.059Z,990.39
2022-11-07T07:43:36.016Z,990.39
2022-11-07T07:44:36.018Z,990.43
2022-11-07T07:45:37.007Z,990.45
2022-11-07T07:46:36.796Z,990.41
2022-11-07T07:47:35.993Z,990.36
2022-11-07T07:48:35.978Z,990.38
2022-11-07T07:49:36.067Z,990.35
2022-11-07T07:50:35.965Z,990.42
2022-11-07T07:51:35.952Z,990.40
2022-11-07T07:53:42.798Z,990.41
2022-11-07T07:54:42.798Z,990.38
2022-11-07T07:55:42.792Z,990.43
2022-11-07T07:56:42.777Z,990.44
2022-11-07T07:57:42.776Z,990.43
2022-11-07T07:58:42.768Z,990.44
2022-11-07T07:59:42.752Z,990.46
2022-11-07T08:00:42.816Z,990.40
2022-11-07T08:01:42.922Z,990.43
2022-11-07T08:02:42.730Z,990.33
2022-11-07T08:04:00.726Z,990.52
2022-11-07T08:04:43.815Z,990.47
2022-11-07T08:05:45.658Z,990.44
2022-11-07T08:06:42.696Z,990.47
2022-11-07T08:07:42.702Z,990.49
2022-11-07T08:08:42.684Z,990.47
2022-11-07T08:09:42.678Z,990.48
2022-11-07T08:10:43.337Z,990.49
2022-11-07T08:11:43.662Z,990.55
2022-11-07T08:12:42.646Z,990.56
2022-11-07T08:13:42.638Z,990.53
2022-11-07T08:14:42.636Z,990.60
2022-11-07T08:15:42.622Z,990.55
2022-11-07T08:16:43.713Z,990.54
2022-11-07T08:17:43.702Z,990.56
2022-11-07T08:18:43.715Z,990.59
2022-11-07T08:19:44.602Z,990.53
2022-11-07T08:20:44.075Z,990.45
2022-11-07T08:21:43.770Z,990.52
2022-11-07T08:22:43.681Z,990.46
2022-11-07T08:23:43.661Z,990.45
2022-11-07T08:24:43.642Z,990.45
2022-11-07T08:25:43.649Z,990.45
2022-11-07T08:26:43.635Z,990.51
2022-11-07T08:27:44.167Z,990.46
2022-11-07T08:28:43.612Z,990.52
2022-11-07T08:29:43.603Z,990.52
2022-11-07T08:30:43.596Z,990.50
2022-11-07T08:31:43.601Z,990.52
2022-11-07T08:32:43.597Z,990.48
2022-11-07T08:33:45.291Z,990.52
2022-11-07T08:34:45.189Z,990.57
2022-11-07T08:35:43.560Z,990.47
2022-11-07T08:36:43.553Z,990.53
2022-11-07T08:37:44.264Z,990.51
2022-11-07T08:38:43.529Z,990.55
2022-11-07T08:39:43.528Z,990.51
2022-11-07T08:40:43.519Z,990.45
2022-11-07T08:41:43.523Z,990.45
2022-11-07T08:42:43.518Z,990.48
2022-11-07T08:43:43.491Z,990.51
2022-11-07T08:44:43.481Z,990.55
2022-11-07T08:45:43.479Z,990.52
2022-11-07T08:46:43.478Z,990.53
2022-11-07T08:47:44.172Z,990.55
2022-11-07T08:48:43.458Z,990.55
2022-11-07T08:49:43.466Z,990.46
2022-11-07T08:50:43.442Z,990.46
2022-11-07T08:51:43.424Z,990.53
2022-11-07T08:52:43.433Z,990.52
2022-11-07T08:53:43.408Z,990.51
2022-11-07T08:54:43.427Z,990.54
2022-11-07T08:55:43.397Z,990.53
2022-11-07T08:56:43.380Z,990.58
2022-11-07T08:57:43.384Z,990.60
2022-11-07T08:58:43.365Z,990.55
2022-11-07T08:59:43.364Z,990.64
2022-11-07T09:00:43.397Z,990.55
2022-11-07T09:02:14.346Z,990.68
2022-11-07T09:03:23.859Z,990.60
2022-11-07T09:03:50.259Z,990.61
2022-11-07T09:04:45.379Z,990.64
2022-11-07T09:05:44.185Z,990.61
2022-11-07T09:06:43.301Z,990.71
2022-11-07T09:07:43.294Z,990.58
2022-11-07T09:08:43.300Z,990.60
2022-11-07T09:09:43.280Z,990.55
2022-11-07T09:10:43.691Z,990.58
2022-11-07T09:11:43.259Z,990.58
2022-11-07T09:12:43.256Z,990.61
2022-11-07T09:13:43.258Z,990.67
2022-11-07T09:14:43.238Z,990.66
2022-11-07T09:15:49.396Z,990.64
2022-11-07T09:16:45.217Z,990.70
2022-11-07T09:17:43.211Z,990.61
2022-11-07T09:18:43.212Z,990.65
2022-11-07T09:19:43.210Z,990.60
2022-11-07T09:20:43.194Z,990.60
2022-11-07T09:21:43.185Z,990.61
2022-11-07T09:22:43.198Z,990.60
2022-11-07T09:23:43.174Z,990.64
2022-11-07T09:24:43.178Z,990.65
2022-11-07T09:25:43.154Z,990.66
2022-11-07T09:26:43.155Z,990.60
2022-11-07T09:27:43.136Z,990.59
2022-11-07T09:28:47.048Z,990.63
2022-11-07T09:29:45.123Z,990.54
2022-11-07T09:30:43.130Z,990.68
2022-11-07T09:31:43.679Z,990.62
2022-11-07T09:32:45.586Z,990.62
2022-11-07T09:33:44.089Z,990.66
2022-11-07T09:34:43.086Z,990.64
2022-11-07T09:35:43.081Z,990.67
2022-11-07T09:36:43.064Z,990.65
2022-11-07T09:37:43.068Z,990.64
2022-11-07T09:38:43.053Z,990.68
2022-11-07T09:39:43.056Z,990.67
2022-11-07T09:40:43.290Z,990.58
2022-11-07T09:41:43.021Z,990.70
2022-11-07T09:42:43.022Z,990.60
2022-11-07T09:43:43.018Z,990.64
2022-11-07T09:44:43.005Z,990.69
2022-11-07T09:45:43.006Z,990.72
2022-11-07T09:46:42.998Z,990.68
2022-11-07T09:47:42.987Z,990.70
2022-11-07T09:48:42.979Z,990.73
2022-11-07T09:49:43.688Z,990.71
2022-11-07T09:50:43.687Z,990.69
2022-11-07T09:51:42.953Z,990.78
2022-11-07T09:52:43.771Z,990.72
2022-11-07T09:53:44.760Z,990.77
2022-11-07T09:54:42.931Z,990.68
2022-11-07T09:55:42.917Z,990.78
2022-11-07T09:56:42.910Z,990.80
2022-11-07T09:57:42.899Z,990.81
2022-11-07T09:58:42.927Z,990.76
2022-11-07T09:59:42.882Z,990.79
2022-11-07T10:00:42.942Z,990.69
2022-11-07T10:01:43.012Z,990.76
2022-11-07T10:02:42.871Z,990.84
2022-11-07T10:03:52.951Z,990.81
2022-11-07T10:04:44.844Z,990.81
2022-11-07T10:05:42.832Z,990.85
2022-11-07T10:06:42.834Z,990.84
2022-11-07T10:07:42.819Z,990.84
2022-11-07T10:08:44.779Z,990.84
2022-11-07T10:09:42.836Z,990.88
2022-11-07T10:10:42.794Z,990.89
2022-11-07T10:11:42.803Z,990.91
2022-11-07T10:12:44.842Z,990.92
2022-11-07T10:13:43.777Z,990.90
2022-11-07T10:14:42.765Z,990.98
2022-11-07T10:15:42.764Z,990.87
2022-11-07T10:16:42.779Z,990.93
2022-11-07T10:17:42.746Z,990.92
2022-11-07T10:18:42.745Z,990.89
2022-11-07T10:19:42.738Z,990.87
2022-11-07T10:20:42.721Z,990.88
2022-11-07T10:21:42.712Z,990.95
2022-11-07T10:22:42.715Z,990.84
2022-11-07T10:23:42.687Z,990.92
2022-11-07T10:24:42.685Z,990.85
2022-11-07T10:25:42.675Z,990.93
2022-11-07T10:26:42.677Z,990.88
2022-11-07T10:27:42.663Z,990.87
2022-11-07T10:28:42.658Z,990.89
2022-11-07T10:29:44.740Z,990.89
2022-11-07T10:30:43.633Z,990.81
2022-11-07T10:31:42.633Z,990.85
2022-11-07T10:32:42.623Z,990.79
2022-11-07T10:33:42.620Z,990.78
2022-11-07T10:34:42.629Z,990.78
2022-11-07T10:35:42.595Z,990.85
2022-11-07T10:36:42.599Z,990.78
2022-11-07T10:37:42.587Z,990.74
2022-11-07T10:38:42.572Z,990.74
2022-11-07T10:39:42.580Z,990.79
2022-11-07T10:40:44.195Z,990.81
2022-11-07T10:41:42.558Z,990.77
2022-11-07T10:42:42.539Z,990.78
2022-11-07T10:43:44.225Z,990.76
2022-11-07T10:44:43.422Z,990.76
2022-11-07T10:45:42.521Z,990.74
2022-11-07T10:46:42.503Z,990.75
2022-11-07T10:47:42.496Z,990.72
2022-11-07T10:48:42.506Z,990.76
2022-11-07T10:49:42.508Z,990.78
2022-11-07T10:50:42.475Z,990.68
2022-11-07T10:51:43.286Z,990.74
2022-11-07T10:52:42.461Z,990.78
2022-11-07T10:53:42.470Z,990.73
2022-11-07T10:54:42.454Z,990.69
2022-11-07T10:55:42.434Z,990.77
2022-11-07T10:56:42.434Z,990.73
2022-11-07T10:57:42.420Z,990.71
2022-11-07T10:58:42.453Z,990.82
2022-11-07T10:59:42.414Z,990.74
2022-11-07T11:00:42.499Z,990.75
2022-11-07T11:01:42.475Z,990.80
2022-11-07T11:02:42.387Z,990.80
2022-11-07T11:03:44.866Z,990.81
2022-11-07T11:04:48.016Z,990.81
2022-11-07T11:05:44.373Z,990.74
2022-11-07T11:06:42.375Z,990.75
2022-11-07T11:07:44.309Z,990.77
2022-11-07T11:08:42.379Z,990.79
2022-11-07T11:09:44.219Z,990.74
2022-11-07T11:10:42.348Z,990.73
2022-11-07T11:11:42.329Z,990.70
2022-11-07T11:12:42.990Z,990.72
2022-11-07T11:13:47.308Z,990.76
2022-11-07T11:14:52.822Z,990.70
2022-11-07T11:15:42.814Z,990.70
2022-11-07T11:16:42.432Z,990.71
2022-11-07T11:17:42.269Z,990.71
2022-11-07T11:18:42.287Z,990.68
2022-11-07T11:19:42.259Z,990.69
2022-11-07T11:20:42.246Z,990.74
2022-11-07T11:21:42.248Z,990.77
2022-11-07T11:22:43.220Z,990.73
2022-11-07T11:23:42.235Z,990.74
2022-11-07T11:24:42.232Z,990.80
2022-11-07T11:25:44.745Z,990.75
2022-11-07T11:26:42.719Z,990.80
2022-11-07T11:27:42.194Z,990.83
2022-11-07T11:28:42.183Z,990.82
2022-11-07T11:29:42.801Z,990.79
2022-11-07T11:30:42.159Z,990.80
2022-11-07T11:31:42.148Z,990.81
2022-11-07T11:32:43.796Z,990.84
2022-11-07T11:33:42.154Z,990.78
2022-11-07T11:34:42.139Z,990.83
2022-11-07T11:35:42.528Z,990.81
2022-11-07T11:36:43.102Z,990.74
2022-11-07T11:37:42.099Z,990.82
2022-11-07T11:38:43.220Z,990.84
2022-11-07T11:39:42.078Z,990.79
2022-11-07T11:40:42.092Z,990.79
2022-11-07T11:41:42.061Z,990.85
2022-11-07T11:42:42.063Z,990.79
2022-11-07T11:43:42.055Z,990.82
2022-11-07T11:44:42.054Z,990.75
2022-11-07T11:45:43.824Z,990.80
2022-11-07T11:46:43.731Z,990.74
2022-11-07T11:47:43.824Z,990.75
2022-11-07T11:48:42.024Z,990.73
2022-11-07T11:49:44.826Z,990.72
2022-11-07T11:50:43.003Z,990.72
2022-11-07T11:51:41.992Z,990.75
2022-11-07T11:52:41.987Z,990.77
2022-11-07T11:53:41.979Z,990.79
2022-11-07T11:54:41.965Z,990.75
2022-11-07T11:55:41.964Z,990.80
2022-11-07T11:56:41.953Z,990.81
2022-11-07T11:57:41.939Z,990.83
2022-11-07T11:58:41.938Z,990.75
2022-11-07T11:59:41.947Z,990.85
2022-11-07T12:00:41.919Z,990.80
2022-11-07T12:01:41.907Z,990.76
2022-11-07T12:02:41.957Z,990.79
2022-11-07T12:03:41.913Z,990.80
2022-11-07T12:04:42.036Z,990.83
2022-11-07T12:05:41.876Z,990.75
2022-11-07T12:06:41.871Z,990.81
2022-11-07T12:07:41.859Z,990.77
2022-11-07T12:08:41.880Z,990.82
2022-11-07T12:09:41.868Z,990.77
2022-11-07T12:10:43.726Z,990.78
2022-11-07T12:11:41.862Z,990.77
2022-11-07T12:12:41.828Z,990.82
2022-11-07T12:13:42.809Z,990.78
2022-11-07T12:14:41.812Z,990.79
2022-11-07T12:15:41.805Z,990.76
2022-11-07T12:16:41.791Z,990.68
2022-11-07T12:17:41.802Z,990.73
2022-11-07T12:18:41.782Z,990.73
2022-11-07T12:19:41.832Z,990.73
2022-11-07T12:20:41.782Z,990.79
2022-11-07T12:21:47.336Z,990.71
2022-11-07T12:22:43.740Z,990.68
2022-11-07T12:23:41.736Z,990.73
2022-11-07T12:24:41.757Z,990.73
2022-11-07T12:25:41.748Z,990.73
2022-11-07T12:26:41.715Z,990.61
2022-11-07T12:29:00.937Z,990.66
2022-11-07T12:30:01.917Z,990.63
2022-11-07T12:31:00.046Z,990.60
2022-11-07T12:32:00.031Z,990.60
2022-11-07T12:33:00.037Z,990.58
2022-11-07T12:34:01.905Z,990.61